Time;durP1;ratioP1;P1;durP2;ratioP2;P2;SDS_P1;SDS_P2;PMS_P1;PMS_P2;Temp;Humidity;BMP_temperature;BMP_pressure;BME280_temperature;BME280_humidity;BME280_pressure;Samples;Min_cycle;Max_cycle;Signal;HPM_P1;HPM_P2
2022/04/09 00:01:39;;;;;;;3.33;2.58;;;18.30;45.00;;;;;;5063291;22;20231;-67
2022/04/09 00:04:07;;;;;;;2.67;2.42;;;18.30;44.40;;;;;;5034625;28;20185;-68
2022/04/09 00:06:35;;;;;;;4.38;2.85;;;18.30;44.40;;;;;;5016660;28;20281;-68
2022/04/09 00:09:02;;;;;;;2.75;2.47;;;18.20;44.60;;;;;;5018706;28;20200;-68
2022/04/09 00:11:29;;;;;;;3.58;2.70;;;18.20;44.60;;;;;;5016850;28;20234;-68
2022/04/09 00:13:56;;;;;;;3.20;2.53;;;18.20;44.40;;;;;;5034211;28;20190;-68
2022/04/09 00:16:23;;;;;;;3.45;2.47;;;18.20;44.40;;;;;;5016653;28;20195;-68
2022/04/09 00:18:51;;;;;;;3.25;2.65;;;18.10;44.40;;;;;;5034004;28;20188;-68
2022/04/09 00:23:47;;;;;;;2.63;2.42;;;18.10;44.90;;;;;;4992455;28;20218;-67
2022/04/09 00:26:15;;;;;;;2.60;2.40;;;18.10;45.40;;;;;;4977035;28;20550;-67
2022/04/09 00:28:42;;;;;;;3.17;2.13;;;18.00;45.20;;;;;;4977042;28;20297;-67
2022/04/09 00:31:09;;;;;;;2.42;2.22;;;18.00;44.50;;;;;;4993174;28;20260;-67
2022/04/09 00:38:45;;;;;;;2.45;2.25;;;18.00;44.60;;;;;;4892536;22;20243;-68
2022/04/09 00:41:13;;;;;;;3.30;2.40;;;17.90;44.70;;;;;;5053533;28;20305;-68
2022/04/09 00:43:41;;;;;;;2.60;2.30;;;17.90;45.00;;;;;;5052074;28;20221;-68
2022/04/09 00:46:08;;;;;;;3.42;2.45;;;17.90;44.50;;;;;;5051859;28;20570;-68
2022/04/09 00:48:35;;;;;;;2.40;2.20;;;17.90;45.30;;;;;;5052040;28;20215;-67
2022/04/09 00:51:02;;;;;;;2.20;1.98;;;17.90;44.40;;;;;;5052186;28;20199;-68
2022/04/09 00:53:32;;;;;;;2.33;2.13;;;17.90;44.70;;;;;;5052041;28;20286;-68
2022/04/09 00:58:31;;;;;;;2.22;1.98;;;17.90;44.70;;;;;;5030134;28;20225;-75
2022/04/09 01:00:58;;;;;;;2.35;2.10;;;17.80;44.50;;;;;;5014948;28;20196;-75
2022/04/09 01:03:26;;;;;;;2.17;2.03;;;17.80;44.50;;;;;;5015692;28;20232;-74
2022/04/09 01:05:53;;;;;;;2.45;2.20;;;17.80;44.70;;;;;;5036481;22;20734;-68
2022/04/09 01:08:20;;;;;;;2.38;2.17;;;17.80;44.60;;;;;;5226305;22;20246;-68
2022/04/09 01:10:50;;;;;;;2.40;2.00;;;17.80;44.50;;;;;;5072965;28;20197;-69
2022/04/09 01:13:17;;;;;;;2.03;1.92;;;17.80;44.50;;;;;;5071918;28;20191;-67
2022/04/09 01:15:45;;;;;;;2.03;1.90;;;17.80;44.50;;;;;;5072037;28;20217;-67
2022/04/09 01:18:15;;;;;;;2.75;2.20;;;17.80;44.50;;;;;;5065581;28;20280;-67
2022/04/09 01:20:42;;;;;;;2.03;1.92;;;17.70;44.30;;;;;;5051904;28;20195;-67
2022/04/09 01:23:11;;;;;;;2.03;1.75;;;17.70;44.40;;;;;;5051691;28;20704;-66
2022/04/09 01:25:39;;;;;;;2.53;2.00;;;17.70;44.30;;;;;;5051913;28;20199;-67
2022/04/09 01:28:08;;;;;;;2.15;1.95;;;17.70;44.70;;;;;;5051973;28;20215;-67
2022/04/09 01:30:35;;;;;;;2.17;1.98;;;17.70;44.40;;;;;;5079297;22;20231;-65
2022/04/09 01:33:02;;;;;;;2.15;1.95;;;17.70;44.40;;;;;;5057537;22;20232;-69
2022/04/09 01:35:30;;;;;;;1.90;1.80;;;17.70;44.40;;;;;;5074179;22;20231;-63
2022/04/09 01:37:57;;;;;;;2.55;1.80;;;17.70;44.30;;;;;;5041454;22;20232;-65
2022/04/09 01:40:26;;;;;;;2.22;2.00;;;17.70;44.30;;;;;;5051898;28;20202;-68
2022/04/09 01:42:53;;;;;;;2.42;1.80;;;17.60;44.50;;;;;;5051511;28;20215;-67
2022/04/09 01:45:20;;;;;;;2.00;1.88;;;17.60;44.40;;;;;;5053185;28;20199;-68
2022/04/09 01:47:48;;;;;;;1.70;1.60;;;17.60;44.40;;;;;;5051990;28;20195;-67
2022/04/09 01:53:21;;;;;;;2.10;1.90;;;17.60;44.40;;;;;;4993913;28;20208;-68
2022/04/09 01:55:51;;;;;;;1.80;1.70;;;17.60;44.50;;;;;;4976633;28;20694;-68
2022/04/09 01:58:19;;;;;;;1.98;1.60;;;17.60;44.40;;;;;;4979764;28;20256;-68
2022/04/09 02:00:49;;;;;;;2.20;1.92;;;17.60;44.40;;;;;;4979743;28;20312;-69
2022/04/09 02:03:16;;;;;;;2.10;1.92;;;17.50;44.40;;;;;;4979447;28;20271;-68
2022/04/09 02:05:43;;;;;;;1.75;1.65;;;17.50;44.30;;;;;;4995651;28;20557;-68
2022/04/09 02:10:59;;;;;;;1.88;1.77;;;17.50;44.50;;;;;;5094444;22;20585;-69
2022/04/09 02:13:27;;;;;;;1.85;1.67;;;17.50;44.30;;;;;;5035686;28;20204;-69
2022/04/09 02:15:55;;;;;;;1.98;1.80;;;17.50;44.40;;;;;;5034822;28;20204;-68
2022/04/09 02:18:28;;;;;;;1.90;1.80;;;17.50;44.30;;;;;;5036958;28;20191;-68
2022/04/09 02:20:56;;;;;;;1.95;1.52;;;17.50;44.30;;;;;;5035103;28;20192;-68
2022/04/09 02:23:23;;;;;;;1.75;1.65;;;17.50;44.30;;;;;;5051276;28;20216;-68
2022/04/09 02:28:19;;;;;;;1.80;1.70;;;17.40;44.30;;;;;;5086833;22;20249;-68
2022/04/09 02:33:22;;;;;;;1.65;1.55;;;17.40;44.30;;;;;;5053738;28;20245;-68
2022/04/09 02:35:50;;;;;;;1.52;1.42;;;17.40;44.30;;;;;;5038259;28;20689;-68
2022/04/09 02:38:17;;;;;;;1.80;1.70;;;17.50;44.50;;;;;;5038054;28;20211;-68
2022/04/09 02:46:03;;;;;;;2.00;1.90;;;17.40;44.30;;;;;;5032600;28;20215;-54
2022/04/09 02:48:32;;;;;;;1.80;1.70;;;17.40;44.30;;;;;;5017466;28;20196;-54
2022/04/09 02:51:01;;;;;;;2.38;1.67;;;17.40;44.30;;;;;;5033323;22;20216;-63
2022/04/09 02:53:28;;;;;;;1.77;1.52;;;17.40;44.10;;;;;;5034549;28;20265;-61
2022/04/09 02:55:57;;;;;;;1.80;1.60;;;17.40;44.10;;;;;;5034824;28;20258;-61
2022/04/09 02:58:24;;;;;;;1.42;1.33;;;17.40;44.30;;;;;;5034258;28;20242;-61
2022/04/09 03:00:51;;;;;;;1.95;1.80;;;17.30;44.70;;;;;;5052516;22;20590;-66
2022/04/09 03:03:26;;;;;;;1.65;1.55;;;17.40;44.30;;;;;;5018188;28;20240;-66
2022/04/09 03:05:53;;;;;;;1.92;1.80;;;17.30;44.20;;;;;;5017824;28;20657;-66
2022/04/09 03:08:21;;;;;;;1.90;1.80;;;17.30;44.10;;;;;;5035588;28;20188;-66
2022/04/09 03:10:48;;;;;;;1.70;1.60;;;17.30;44.10;;;;;;5017815;28;20291;-66
2022/04/09 03:13:15;;;;;;;1.60;1.50;;;17.40;44.00;;;;;;5017560;28;20223;-67
2022/04/09 03:15:44;;;;;;;1.60;1.50;;;17.30;43.90;;;;;;5035413;28;20184;-67
2022/04/09 03:18:13;;;;;;;1.70;1.60;;;17.30;43.70;;;;;;5075002;22;20341;-67
2022/04/09 03:20:41;;;;;;;1.70;1.60;;;17.30;43.90;;;;;;5055172;28;20183;-66
2022/04/09 03:23:09;;;;;;;1.75;1.40;;;17.30;43.90;;;;;;5060461;22;20572;-66
2022/04/09 03:25:44;;;;;;;1.70;1.60;;;17.30;43.90;;;;;;5034280;28;20279;-66
2022/04/09 03:28:13;;;;;;;1.50;1.40;;;17.30;44.10;;;;;;5034745;28;20354;-66
2022/04/09 03:30:40;;;;;;;1.65;1.55;;;17.30;44.50;;;;;;5034205;28;20223;-66
2022/04/09 03:33:09;;;;;;;1.35;1.30;;;17.30;43.90;;;;;;5033740;28;20688;-66
2022/04/09 03:38:04;;;;;;;1.60;1.50;;;17.40;43.90;;;;;;5066871;22;20246;-66
2022/04/09 03:40:41;;;;;;;1.60;1.50;;;17.40;43.90;;;;;;5033465;28;20203;-67
2022/04/09 03:45:43;;;;;;;1.70;1.60;;;17.40;43.70;;;;;;5033184;28;20290;-67
2022/04/09 03:48:11;;;;;;;1.60;1.50;;;17.40;43.70;;;;;;5033439;28;20196;-67
2022/04/09 03:50:43;;;;;;;1.70;1.60;;;17.40;43.70;;;;;;5033500;28;20219;-67
2022/04/09 03:53:19;;;;;;;1.70;1.60;;;17.40;43.70;;;;;;5033571;28;20215;-67
2022/04/09 03:55:48;;;;;;;1.52;1.42;;;17.40;43.70;;;;;;5033687;28;20667;-67
2022/04/09 03:58:16;;;;;;;2.47;1.58;;;17.40;43.70;;;;;;5033103;28;20200;-67
2022/04/09 04:00:45;;;;;;;1.85;1.55;;;17.40;43.70;;;;;;5033679;28;20196;-67
2022/04/09 04:03:12;;;;;;;1.70;1.60;;;17.40;43.70;;;;;;5033268;28;20231;-67
2022/04/09 04:05:40;;;;;;;1.58;1.42;;;17.40;43.70;;;;;;5033085;28;20641;-67
2022/04/09 04:08:08;;;;;;;1.83;1.73;;;17.40;43.70;;;;;;5033347;28;20237;-68
2022/04/09 04:10:37;;;;;;;2.53;1.92;;;17.40;43.70;;;;;;5148010;22;20228;-64
2022/04/09 04:15:55;;;;;;;1.88;1.52;;;17.40;43.70;;;;;;5066472;22;20230;-63
2022/04/09 04:18:23;;;;;;;1.90;1.80;;;17.50;43.70;;;;;;5052763;28;20195;-63
2022/04/09 04:20:55;;;;;;;1.67;1.58;;;17.50;43.60;;;;;;5052509;28;20184;-62
2022/04/09 04:23:23;;;;;;;1.80;1.70;;;17.40;43.60;;;;;;5052316;28;20229;-63
2022/04/09 04:25:52;;;;;;;2.00;1.90;;;17.50;43.70;;;;;;5053442;28;20203;-63
2022/04/09 04:28:20;;;;;;;2.08;1.88;;;17.50;43.60;;;;;;5052336;28;20196;-63
2022/04/09 04:30:48;;;;;;;1.90;1.80;;;17.50;43.50;;;;;;5052173;28;20252;-63
2022/04/09 04:33:16;;;;;;;2.28;1.80;;;17.50;43.70;;;;;;5052046;28;20225;-62
2022/04/09 04:35:49;;;;;;;1.70;1.60;;;17.50;43.60;;;;;;5052352;28;20184;-63
2022/04/09 04:38:16;;;;;;;1.80;1.70;;;17.50;43.30;;;;;;5052137;28;20285;-63
2022/04/09 04:40:46;;;;;;;1.98;1.88;;;17.50;43.20;;;;;;5052175;28;20199;-63
2022/04/09 04:45:50;;;;;;;2.17;1.88;;;17.60;43.20;;;;;;5074693;22;20238;-68
2022/04/09 04:48:20;;;;;;;1.95;1.80;;;17.60;43.00;;;;;;5052038;28;20198;-68
2022/04/09 04:50:48;;;;;;;2.13;1.70;;;17.60;43.00;;;;;;5052224;28;20282;-68
2022/04/09 04:53:16;;;;;;;1.80;1.70;;;17.60;42.90;;;;;;5052191;28;20359;-68
2022/04/09 04:55:48;;;;;;;1.80;1.70;;;17.70;42.80;;;;;;5052206;28;20215;-68
2022/04/09 04:58:19;;;;;;;1.70;1.60;;;17.60;42.70;;;;;;5052045;28;20223;-68
2022/04/09 05:00:54;;;;;;;1.98;1.88;;;17.70;42.70;;;;;;5052244;28;20194;-67
2022/04/09 05:03:22;;;;;;;1.80;1.58;;;17.70;42.80;;;;;;5052907;28;20207;-67
2022/04/09 05:06:11;;;;;;;1.92;1.70;;;17.70;42.80;;;;;;5052165;28;20219;-68
2022/04/09 05:08:40;;;;;;;2.15;1.92;;;17.80;42.70;;;;;;5051947;28;20192;-67
2022/04/09 05:11:09;;;;;;;2.00;1.90;;;17.80;42.60;;;;;;5051934;28;20195;-67
2022/04/09 05:13:38;;;;;;;1.90;1.80;;;17.80;42.50;;;;;;5052530;28;20195;-68
2022/04/09 05:18:46;;;;;;;1.80;1.70;;;17.80;42.40;;;;;;5031211;28;20285;-50
2022/04/09 05:21:15;;;;;;;2.08;1.88;;;17.80;42.40;;;;;;5032155;28;20572;-51
2022/04/09 05:23:43;;;;;;;2.58;1.85;;;17.90;43.00;;;;;;5015065;28;20254;-50
2022/04/09 05:26:10;;;;;;;2.08;1.98;;;17.90;42.50;;;;;;5015562;28;20192;-51
2022/04/09 05:28:39;;;;;;;2.45;1.75;;;17.90;42.20;;;;;;5015112;28;20207;-51
2022/04/09 05:31:08;;;;;;;2.08;1.98;;;18.00;42.30;;;;;;5015105;28;20594;-51
2022/04/09 05:33:36;;;;;;;2.50;1.80;;;18.00;41.90;;;;;;5043542;22;20237;-65
2022/04/09 05:36:05;;;;;;;1.75;1.65;;;18.00;41.90;;;;;;5055456;28;20203;-65
2022/04/09 05:38:34;;;;;;;1.95;1.85;;;18.10;42.00;;;;;;5055608;28;20203;-65
2022/04/09 05:41:03;;;;;;;1.80;1.70;;;18.10;41.80;;;;;;5055698;28;20202;-65
2022/04/09 05:43:32;;;;;;;2.10;1.80;;;18.20;41.50;;;;;;5055328;28;20215;-65
2022/04/09 05:46:00;;;;;;;1.92;1.77;;;18.30;41.30;;;;;;5055742;28;20286;-65
2022/04/09 05:48:35;;;;;;;2.00;1.80;;;18.40;41.00;;;;;;5056035;28;20197;-65
2022/04/09 05:51:04;;;;;;;2.10;1.90;;;18.50;41.10;;;;;;5056219;28;20612;-65
2022/04/09 05:53:36;;;;;;;2.58;1.90;;;18.60;40.70;;;;;;5056650;28;20219;-67
2022/04/09 05:56:05;;;;;;;1.88;1.73;;;18.80;40.30;;;;;;5056409;28;20219;-68
2022/04/09 05:58:41;;;;;;;1.92;1.80;;;19.00;40.50;;;;;;5055919;28;20195;-67
2022/04/09 06:01:11;;;;;;;2.22;1.95;;;19.10;40.10;;;;;;5055512;28;20663;-67
2022/04/09 06:03:39;;;;;;;1.98;1.77;;;19.20;39.90;;;;;;5055012;28;20223;-67
2022/04/09 06:06:09;;;;;;;1.88;1.70;;;19.20;39.60;;;;;;5054938;28;20278;-67
2022/04/09 06:08:56;;;;;;;1.70;1.60;;;19.10;39.70;;;;;;5054937;28;20207;-67
2022/04/09 06:11:34;;;;;;;2.25;1.80;;;19.20;39.70;;;;;;5054908;28;20199;-67
2022/04/09 06:14:06;;;;;;;2.28;1.65;;;19.20;39.70;;;;;;5055068;28;20215;-67
2022/04/09 06:16:35;;;;;;;1.88;1.77;;;19.20;39.60;;;;;;5054751;28;20286;-67
2022/04/09 06:19:05;;;;;;;1.45;1.40;;;19.30;39.50;;;;;;5055285;28;20187;-67
2022/04/09 06:21:35;;;;;;;2.03;1.63;;;19.20;40.00;;;;;;5054561;28;20199;-67
2022/04/09 06:24:03;;;;;;;1.73;1.60;;;19.20;39.60;;;;;;5054996;28;20234;-67
2022/04/09 06:26:30;;;;;;;1.75;1.50;;;19.20;39.40;;;;;;5055642;28;20672;-67
2022/04/09 06:28:58;;;;;;;1.60;1.50;;;19.20;39.40;;;;;;5054350;28;20677;-67
2022/04/09 06:31:25;;;;;;;1.63;1.52;;;19.10;39.40;;;;;;5054390;28;20211;-67
2022/04/09 06:33:53;;;;;;;1.63;1.52;;;19.10;39.50;;;;;;5054098;28;20261;-67
2022/04/09 06:36:20;;;;;;;1.85;1.65;;;19.10;39.40;;;;;;5054512;28;20195;-67
2022/04/09 06:38:49;;;;;;;2.05;1.52;;;19.00;39.40;;;;;;5054171;28;20229;-67
2022/04/09 06:41:28;;;;;;;1.70;1.60;;;19.00;39.40;;;;;;5054371;28;20671;-67
2022/04/09 06:43:56;;;;;;;1.83;1.60;;;19.00;39.50;;;;;;5054144;28;20227;-67
2022/04/09 06:46:31;;;;;;;1.90;1.80;;;19.00;39.50;;;;;;5054068;28;20199;-67
2022/04/09 06:49:16;;;;;;;1.60;1.50;;;19.00;39.60;;;;;;5054016;28;20199;-67
2022/04/09 06:51:53;;;;;;;1.92;1.77;;;19.00;39.60;;;;;;5053876;28;20632;-67
2022/04/09 06:54:38;;;;;;;2.00;1.80;;;19.00;39.50;;;;;;5053834;28;20706;-67
2022/04/09 06:57:05;;;;;;;1.70;1.60;;;19.00;39.60;;;;;;5053881;28;20192;-67
2022/04/09 06:59:39;;;;;;;2.08;1.60;;;19.00;39.60;;;;;;5077629;22;20255;-68
2022/04/09 07:04:40;;;;;;;1.83;1.70;;;19.00;39.60;;;;;;5032449;28;20225;-52
2022/04/09 07:07:08;;;;;;;1.80;1.70;;;19.00;39.60;;;;;;5017205;28;20279;-52
2022/04/09 07:09:35;;;;;;;1.80;1.70;;;19.00;39.60;;;;;;5035047;28;20272;-53
2022/04/09 07:12:04;;;;;;;2.10;1.77;;;19.00;39.70;;;;;;5016986;28;20251;-53
2022/04/09 07:14:31;;;;;;;2.05;1.67;;;19.00;39.60;;;;;;5034867;28;20184;-50
2022/04/09 07:17:03;;;;;;;2.10;1.70;;;19.00;39.80;;;;;;5017358;28;20286;-50
2022/04/09 07:19:30;;;;;;;1.90;1.65;;;19.00;39.80;;;;;;5017089;28;20258;-51
2022/04/09 07:21:57;;;;;;;1.88;1.70;;;19.00;39.60;;;;;;5034673;28;20208;-50
2022/04/09 07:24:24;;;;;;;2.95;2.05;;;19.00;39.60;;;;;;5034544;28;20302;-50
2022/04/09 07:26:51;;;;;;;2.13;1.92;;;19.00;39.60;;;;;;5016853;28;20196;-50
2022/04/09 07:29:20;;;;;;;2.45;1.77;;;19.00;39.40;;;;;;5034513;28;20223;-50
2022/04/09 07:31:47;;;;;;;1.90;1.80;;;19.10;39.40;;;;;;5069939;22;20325;-72
2022/04/09 07:36:48;;;;;;;1.92;1.80;;;19.10;39.30;;;;;;5031687;28;20254;-49
2022/04/09 07:39:16;;;;;;;1.67;1.50;;;19.20;39.20;;;;;;5034372;28;20216;-48
2022/04/09 07:41:44;;;;;;;2.03;1.92;;;19.20;39.20;;;;;;5034284;28;20269;-48
2022/04/09 07:44:11;;;;;;;1.90;1.80;;;19.20;39.20;;;;;;5016412;28;20238;-48
2022/04/09 07:46:40;;;;;;;1.77;1.63;;;19.20;39.10;;;;;;5016701;28;20296;-49
2022/04/09 07:49:08;;;;;;;1.70;1.60;;;19.20;39.30;;;;;;5034338;28;20558;-47
2022/04/09 07:51:34;;;;;;;2.63;1.73;;;19.20;39.70;;;;;;5034212;28;20215;-48
2022/04/09 07:54:02;;;;;;;2.03;1.70;;;19.20;39.10;;;;;;5034389;28;20188;-48
2022/04/09 07:56:29;;;;;;;1.70;1.60;;;19.20;39.10;;;;;;5050987;22;20223;-67
2022/04/09 07:58:56;;;;;;;1.98;1.85;;;19.30;39.20;;;;;;5052714;28;20203;-67
2022/04/09 08:01:23;;;;;;;2.17;1.98;;;19.30;39.10;;;;;;5052686;28;20674;-67
2022/04/09 08:03:51;;;;;;;2.05;1.50;;;19.20;39.10;;;;;;5053830;28;20633;-67
2022/04/09 08:06:18;;;;;;;1.70;1.60;;;19.30;39.20;;;;;;5054723;22;20258;-69
2022/04/09 08:08:45;;;;;;;2.05;1.48;;;19.30;39.20;;;;;;5034006;28;20654;-69
2022/04/09 08:11:12;;;;;;;1.75;1.65;;;19.30;39.30;;;;;;5034146;28;20203;-69
2022/04/09 08:13:40;;;;;;;1.63;1.50;;;19.20;39.90;;;;;;5016373;28;20199;-69
2022/04/09 08:16:07;;;;;;;3.03;1.70;;;19.20;40.20;;;;;;5064190;22;20846;-51
2022/04/09 08:18:34;;;;;;;2.17;1.60;;;19.30;40.70;;;;;;5060164;22;20224;-68
2022/04/09 08:21:03;;;;;;;3.95;1.73;;;19.30;42.70;;;;;;5033917;28;20231;-68
2022/04/09 08:23:31;;;;;;;1.77;1.67;;;19.30;43.50;;;;;;5033773;28;20298;-67
2022/04/09 08:26:00;;;;;;;42.53;23.33;;;19.30;43.40;;;;;;5033697;28;20204;-68
2022/04/09 08:28:30;;;;;;;237.43;101.03;;;19.30;43.10;;;;;;5032550;28;20196;-68
2022/04/09 08:30:57;;;;;;;155.73;78.05;;;19.40;45.00;;;;;;5098724;22;20747;-73
2022/04/09 08:33:24;;;;;;;77.20;38.92;;;19.40;47.20;;;;;;5056265;28;20256;-74
2022/04/09 08:35:51;;;;;;;59.03;29.38;;;19.40;45.00;;;;;;5054643;28;20224;-73
2022/04/09 08:38:19;;;;;;;55.55;26.00;;;19.50;44.00;;;;;;5053873;28;20290;-74
2022/04/09 08:40:46;;;;;;;49.83;24.83;;;19.50;43.70;;;;;;5053458;28;20213;-74
2022/04/09 08:43:13;;;;;;;43.55;23.30;;;19.60;43.50;;;;;;5053472;28;20280;-74
2022/04/09 08:45:41;;;;;;;33.92;20.75;;;19.60;43.00;;;;;;5053831;28;20219;-74
2022/04/09 08:48:08;;;;;;;36.28;19.17;;;19.70;42.50;;;;;;5054771;28;20203;-74
2022/04/09 08:50:36;;;;;;;35.38;18.40;;;19.70;42.50;;;;;;5076433;22;20257;-62
2022/04/09 08:53:06;;;;;;;34.47;16.98;;;19.80;42.20;;;;;;5015500;28;20222;-63
2022/04/09 08:55:35;;;;;;;28.58;16.95;;;19.80;42.00;;;;;;5033168;28;20226;-62
2022/04/09 08:58:02;;;;;;;25.33;15.85;;;19.80;41.60;;;;;;5033237;28;20188;-62
2022/04/09 09:00:29;;;;;;;28.05;14.90;;;19.80;41.50;;;;;;5033145;28;20192;-63
2022/04/09 09:02:57;;;;;;;29.15;14.77;;;19.80;40.90;;;;;;5031888;28;20216;-63
2022/04/09 09:05:29;;;;;;;27.05;14.05;;;19.80;41.10;;;;;;5168504;22;20758;-67
2022/04/09 09:07:56;;;;;;;25.33;14.30;;;19.70;40.70;;;;;;5055814;28;20252;-68
2022/04/09 09:10:23;;;;;;;22.73;13.57;;;19.70;41.00;;;;;;5055973;28;20192;-67
2022/04/09 09:12:59;;;;;;;23.63;12.35;;;19.80;41.10;;;;;;5055939;28;20617;-68
2022/04/09 09:15:26;;;;;;;26.95;13.30;;;19.80;41.00;;;;;;5055886;28;20219;-67
2022/04/09 09:17:56;;;;;;;22.75;12.75;;;19.80;41.40;;;;;;5055923;28;20206;-68
2022/04/09 09:20:24;;;;;;;23.85;10.90;;;19.80;40.60;;;;;;5055853;28;20720;-67
2022/04/09 09:22:51;;;;;;;20.50;11.00;;;19.90;40.20;;;;;;5056935;28;20270;-68
2022/04/09 09:25:18;;;;;;;18.45;10.88;;;20.10;40.10;;;;;;5055685;28;20599;-68
2022/04/09 09:27:45;;;;;;;19.30;10.75;;;20.30;40.40;;;;;;5056135;28;20293;-68
2022/04/09 09:30:14;;;;;;;19.08;10.10;;;20.60;39.70;;;;;;5055936;28;20282;-68
2022/04/09 09:32:42;;;;;;;21.70;11.23;;;20.80;39.40;;;;;;5055630;28;20235;-69
2022/04/09 09:35:12;;;;;;;19.17;9.75;;;21.00;39.20;;;;;;5055464;28;20222;-67
2022/04/09 09:37:38;;;;;;;16.85;9.02;;;21.20;38.60;;;;;;5056822;28;20187;-66
2022/04/09 09:40:06;;;;;;;18.88;8.98;;;21.40;38.70;;;;;;5055693;28;20214;-67
2022/04/09 09:42:35;;;;;;;17.25;9.77;;;21.50;38.50;;;;;;5055907;28;20202;-67
2022/04/09 09:45:03;;;;;;;16.38;8.45;;;21.60;37.80;;;;;;5055373;28;20219;-69
2022/04/09 09:47:31;;;;;;;14.40;7.75;;;21.60;37.70;;;;;;5056708;28;20673;-68
2022/04/09 09:49:58;;;;;;;16.48;7.90;;;21.60;37.80;;;;;;5055266;28;20195;-67
2022/04/09 09:52:26;;;;;;;14.05;7.63;;;21.60;38.50;;;;;;5056608;28;20195;-68
2022/04/09 09:54:57;;;;;;;17.15;8.18;;;21.60;38.00;;;;;;5055241;28;20307;-69
2022/04/09 10:08:15;;;;;;;15.10;9.00;;;21.50;37.90;;;;;;6095023;22;20171;-69
2022/04/09 10:10:46;;;;;;;15.88;8.75;;;21.50;38.00;;;;;;5062068;22;20223;-70
2022/04/09 10:13:13;;;;;;;16.08;8.65;;;21.50;37.90;;;;;;5169475;22;20215;-64
2022/04/09 10:15:41;;;;;;;18.05;8.57;;;21.50;37.90;;;;;;5056361;28;20535;-64
2022/04/09 10:18:09;;;;;;;15.35;8.02;;;21.50;37.60;;;;;;5037125;28;20218;-64
2022/04/09 10:20:36;;;;;;;15.07;7.53;;;21.50;37.50;;;;;;5038022;28;20585;-63
2022/04/09 10:23:05;;;;;;;17.27;7.78;;;21.50;37.40;;;;;;5055872;28;20710;-63
2022/04/09 10:25:34;;;;;;;14.48;7.68;;;21.50;37.80;;;;;;5056207;28;20229;-64
2022/04/09 10:28:02;;;;;;;14.23;7.07;;;21.50;37.50;;;;;;5037797;28;20238;-64
2022/04/09 10:30:29;;;;;;;13.32;6.50;;;21.50;37.10;;;;;;5037842;28;20199;-65
2022/04/09 10:32:57;;;;;;;11.70;6.50;;;21.50;37.00;;;;;;5055715;28;20218;-64
2022/04/09 10:35:38;;;;;;;16.45;6.95;;;21.50;37.50;;;;;;5070476;22;20257;-66
2022/04/09 10:43:42;;;;;;;10.98;5.88;;;21.50;37.50;;;;;;3077411;22;20237;-67
2022/04/09 10:46:21;;;;;;;9.98;5.57;;;21.50;37.40;;;;;;5065991;22;20230;-63
2022/04/09 10:48:49;;;;;;;9.65;5.07;;;21.70;36.90;;;;;;5143485;22;20156;-67
2022/04/09 10:51:15;;;;;;;10.23;5.32;;;21.70;36.90;;;;;;5093394;28;20216;-69
2022/04/09 10:53:44;;;;;;;10.50;4.82;;;21.80;37.30;;;;;;5076043;28;20231;-70
2022/04/09 10:56:20;;;;;;;10.05;5.03;;;21.80;36.40;;;;;;5066578;28;20309;-69
2022/04/09 10:59:01;;;;;;;7.85;4.65;;;21.90;36.30;;;;;;5056326;28;20194;-70
2022/04/09 11:01:51;;;;;;;7.40;4.50;;;21.90;36.50;;;;;;5074256;28;20195;-68
2022/04/09 11:04:45;;;;;;;9.25;5.30;;;21.80;36.20;;;;;;5057237;28;20194;-67
2022/04/09 11:07:17;;;;;;;7.93;4.50;;;21.80;35.80;;;;;;5089415;22;20235;-67
2022/04/09 11:14:51;;;;;;;9.27;4.28;;;21.80;36.20;;;;;;5254460;22;20339;-69
2022/04/09 11:28:06;;;;;;;6.68;3.33;;;21.80;35.00;;;;;;3398381;22;20599;-71
2022/04/09 11:30:34;;;;;;;6.22;3.17;;;21.70;34.90;;;;;;5052910;22;20239;-66
2022/04/09 11:33:01;;;;;;;7.28;3.40;;;21.70;35.00;;;;;;5036961;28;20200;-66
2022/04/09 11:35:34;;;;;;;6.43;3.58;;;21.70;35.00;;;;;;5052206;22;20231;-48
2022/04/09 11:38:01;;;;;;;5.60;3.30;;;21.70;35.10;;;;;;5157690;22;21245;-69
2022/04/09 11:40:28;;;;;;;6.18;3.33;;;21.70;35.10;;;;;;5066651;22;20232;-70
2022/04/09 11:42:56;;;;;;;5.13;3.50;;;21.70;35.20;;;;;;5016747;28;20196;-70
2022/04/09 11:45:24;;;;;;;5.85;3.28;;;21.70;35.20;;;;;;5047493;22;20234;-72
2022/04/09 11:53:16;;;;;;;4.93;2.95;;;21.70;34.90;;;;;;4614726;22;20234;-63
2022/04/09 11:55:45;;;;;;;4.95;2.78;;;21.70;35.00;;;;;;5054472;28;20559;-63
2022/04/09 11:58:14;;;;;;;4.50;2.50;;;21.70;34.90;;;;;;5036096;28;20252;-63
2022/04/09 12:00:42;;;;;;;5.88;2.88;;;21.70;34.90;;;;;;5036047;28;20208;-63
2022/04/09 12:03:09;;;;;;;6.78;3.08;;;21.80;34.70;;;;;;5054031;28;20208;-64
2022/04/09 12:05:37;;;;;;;4.80;2.90;;;21.80;34.80;;;;;;5053820;28;20204;-63
2022/04/09 12:08:07;;;;;;;5.43;2.80;;;21.80;34.80;;;;;;5035947;28;20199;-63
2022/04/09 12:10:35;;;;;;;4.57;2.80;;;21.80;34.70;;;;;;5087493;22;20565;-67
2022/04/09 12:13:03;;;;;;;6.05;2.65;;;21.80;35.00;;;;;;5058151;22;20208;-65
2022/04/09 12:15:32;;;;;;;4.70;2.90;;;21.70;34.80;;;;;;5032866;22;20196;-49
2022/04/09 12:18:04;;;;;;;4.35;2.47;;;21.70;34.70;;;;;;5081074;22;20558;-50
2022/04/09 12:20:35;;;;;;;3.88;2.35;;;21.70;34.70;;;;;;5048720;22;20235;-62
2022/04/09 12:23:03;;;;;;;5.35;2.55;;;21.70;35.20;;;;;;5053804;28;20210;-62
2022/04/09 12:25:39;;;;;;;5.30;2.75;;;21.70;35.50;;;;;;5053526;28;20214;-62
2022/04/09 12:28:19;;;;;;;6.00;2.67;;;21.70;36.30;;;;;;5065454;22;20234;-72
2022/04/09 12:30:47;;;;;;;4.18;2.65;;;21.70;35.20;;;;;;5123946;22;20269;-71
2022/04/09 12:33:14;;;;;;;2.83;2.50;;;21.70;36.00;;;;;;5035661;28;20207;-71
2022/04/09 12:35:41;;;;;;;5.85;2.38;;;21.70;35.50;;;;;;5035585;28;20191;-71
2022/04/09 12:38:09;;;;;;;4.88;2.70;;;21.70;35.20;;;;;;5036565;28;20221;-70
2022/04/09 12:40:38;;;;;;;6.20;2.60;;;21.70;35.50;;;;;;5035342;28;20199;-71
2022/04/09 12:43:34;;;;;;;4.10;2.58;;;21.70;35.60;;;;;;5035543;28;20664;-70
2022/04/09 12:46:05;;;;;;;4.65;2.75;;;21.70;35.90;;;;;;5035591;28;20282;-69
2022/04/09 12:48:40;;;;;;;3.40;2.25;;;21.70;35.70;;;;;;5035522;28;20199;-71
2022/04/09 12:51:07;;;;;;;3.63;2.13;;;21.70;35.40;;;;;;5055341;28;20213;-70
2022/04/09 12:53:34;;;;;;;3.35;2.30;;;21.70;35.30;;;;;;5053406;28;20229;-72
2022/04/09 12:56:05;;;;;;;2.83;2.20;;;21.80;35.30;;;;;;5053504;28;20237;-70
2022/04/09 12:58:33;;;;;;;3.72;2.20;;;21.80;35.20;;;;;;5035871;28;20195;-71
2022/04/09 13:01:00;;;;;;;3.80;2.50;;;21.70;35.10;;;;;;5035774;28;20219;-70
2022/04/09 13:03:27;;;;;;;3.75;2.40;;;21.70;34.90;;;;;;5036931;28;20577;-70
2022/04/09 13:05:55;;;;;;;3.70;2.38;;;21.70;34.70;;;;;;5035734;28;20219;-71
2022/04/09 13:08:22;;;;;;;4.18;2.15;;;21.70;34.90;;;;;;5035395;28;20192;-70
2022/04/09 13:10:49;;;;;;;3.97;2.05;;;21.80;34.70;;;;;;5035399;28;20654;-70
2022/04/09 13:13:17;;;;;;;4.40;2.40;;;21.80;35.00;;;;;;5035481;28;20203;-71
2022/04/09 13:15:46;;;;;;;3.17;2.33;;;21.80;34.90;;;;;;5035401;28;20585;-71
2022/04/09 13:18:13;;;;;;;2.90;2.10;;;21.80;34.90;;;;;;5056232;28;20180;-70
2022/04/09 13:20:40;;;;;;;3.60;2.42;;;21.80;35.00;;;;;;5044104;28;20661;-71
2022/04/09 13:23:07;;;;;;;3.65;2.20;;;21.80;34.80;;;;;;5036165;28;20685;-71
2022/04/09 13:25:34;;;;;;;3.83;2.30;;;21.70;34.50;;;;;;5035198;28;20207;-71
2022/04/09 13:28:02;;;;;;;2.85;2.20;;;21.80;34.80;;;;;;5035580;28;20688;-71
2022/04/09 13:30:29;;;;;;;5.15;2.10;;;21.70;34.90;;;;;;5036322;28;20210;-71
2022/04/09 13:32:58;;;;;;;4.60;2.50;;;21.70;34.80;;;;;;5035260;28;20216;-70
2022/04/09 13:35:25;;;;;;;2.85;2.03;;;21.60;34.50;;;;;;5035422;28;20218;-71
2022/04/09 13:37:52;;;;;;;3.88;1.98;;;21.60;34.90;;;;;;5051940;28;20216;-70
2022/04/09 13:40:19;;;;;;;3.10;2.05;;;21.60;34.90;;;;;;5035201;28;20195;-70
2022/04/09 13:42:48;;;;;;;3.85;2.10;;;21.60;34.90;;;;;;5052926;28;20619;-70
2022/04/09 13:45:15;;;;;;;4.32;2.40;;;21.50;35.00;;;;;;5035295;28;20199;-70
2022/04/09 13:47:42;;;;;;;3.00;1.90;;;21.60;34.90;;;;;;5035105;28;20297;-71
2022/04/09 13:50:11;;;;;;;3.63;2.00;;;21.50;34.80;;;;;;5035069;28;20192;-71
2022/04/09 13:52:38;;;;;;;2.95;2.00;;;21.60;34.90;;;;;;5034975;28;20219;-72
2022/04/09 13:55:06;;;;;;;2.30;1.90;;;21.50;34.80;;;;;;5056518;28;20657;-71
2022/04/09 13:57:32;;;;;;;3.28;2.15;;;21.50;34.80;;;;;;5038562;28;20202;-71
2022/04/09 14:00:02;;;;;;;3.10;2.10;;;21.50;35.00;;;;;;5038575;28;20669;-70
2022/04/09 14:02:32;;;;;;;2.28;2.03;;;21.50;34.80;;;;;;5056269;28;20642;-70
2022/04/09 14:05:01;;;;;;;3.13;2.25;;;21.50;34.80;;;;;;5038415;28;20290;-71
2022/04/09 14:07:30;;;;;;;2.50;1.85;;;21.50;35.00;;;;;;5038334;28;20229;-70
2022/04/09 14:09:57;;;;;;;4.60;2.00;;;21.50;34.80;;;;;;5056160;28;20195;-70
2022/04/09 14:12:24;;;;;;;2.50;2.00;;;21.40;34.90;;;;;;5056242;28;20217;-71
2022/04/09 14:14:51;;;;;;;2.20;2.00;;;21.40;34.70;;;;;;5056481;28;20203;-71